sensor_id;sensor_type;location;lat;lon;timestamp;temperature;humidity
66190;DHT22;52992;52.084;5.412;2022-12-07T00:02:03;8.90;66.20
66190;DHT22;52992;52.084;5.412;2022-12-07T00:04:30;9.00;66.20
66190;DHT22;52992;52.084;5.412;2022-12-07T00:06:57;9.00;66.00
66190;DHT22;52992;52.084;5.412;2022-12-07T00:09:24;9.00;66.00
66190;DHT22;52992;52.084;5.412;2022-12-07T00:11:51;9.00;66.00
66190;DHT22;52992;52.084;5.412;2022-12-07T00:14:18;9.10;66.20
66190;DHT22;52992;52.084;5.412;2022-12-07T00:16:45;9.10;65.90
66190;DHT22;52992;52.084;5.412;2022-12-07T00:19:16;9.00;65.70
66190;DHT22;52992;52.084;5.412;2022-12-07T00:21:43;9.00;65.70
66190;DHT22;52992;52.084;5.412;2022-12-07T00:24:10;8.90;65.90
66190;DHT22;52992;52.084;5.412;2022-12-07T00:26:39;8.80;65.80
66190;DHT22;52992;52.084;5.412;2022-12-07T00:29:11;8.80;65.90
66190;DHT22;52992;52.084;5.412;2022-12-07T00:31:39;8.70;66.00
66190;DHT22;52992;52.084;5.412;2022-12-07T00:34:07;8.70;66.00
66190;DHT22;52992;52.084;5.412;2022-12-07T00:36:37;8.60;66.00
66190;DHT22;52992;52.084;5.412;2022-12-07T00:39:04;8.60;66.00
66190;DHT22;52992;52.084;5.412;2022-12-07T00:41:31;8.60;66.10
66190;DHT22;52992;52.084;5.412;2022-12-07T00:43:58;8.50;66.00
66190;DHT22;52992;52.084;5.412;2022-12-07T00:46:25;8.50;66.20
66190;DHT22;52992;52.084;5.412;2022-12-07T00:48:53;8.60;66.20
66190;DHT22;52992;52.084;5.412;2022-12-07T00:51:22;8.60;66.20
66190;DHT22;52992;52.084;5.412;2022-12-07T00:53:49;8.70;66.20
66190;DHT22;52992;52.084;5.412;2022-12-07T00:56:24;8.70;66.00
66190;DHT22;52992;52.084;5.412;2022-12-07T00:58:59;8.60;65.90
66190;DHT22;52992;52.084;5.412;2022-12-07T01:01:29;8.60;66.00
66190;DHT22;52992;52.084;5.412;2022-12-07T01:03:56;8.60;66.00
66190;DHT22;52992;52.084;5.412;2022-12-07T01:06:24;8.50;66.10
66190;DHT22;52992;52.084;5.412;2022-12-07T01:08:52;8.50;66.10
66190;DHT22;52992;52.084;5.412;2022-12-07T01:11:22;8.40;66.10
66190;DHT22;52992;52.084;5.412;2022-12-07T01:13:50;8.40;66.20
66190;DHT22;52992;52.084;5.412;2022-12-07T01:16:17;8.40;66.20
66190;DHT22;52992;52.084;5.412;2022-12-07T01:18:49;8.40;66.30
66190;DHT22;52992;52.084;5.412;2022-12-07T01:21:22;8.40;66.20
66190;DHT22;52992;52.084;5.412;2022-12-07T01:23:50;8.40;66.20
66190;DHT22;52992;52.084;5.412;2022-12-07T01:26:20;8.40;66.20
66190;DHT22;52992;52.084;5.412;2022-12-07T01:28:47;8.30;66.20
66190;DHT22;52992;52.084;5.412;2022-12-07T01:31:20;8.40;66.20
66190;DHT22;52992;52.084;5.412;2022-12-07T01:33:49;8.40;66.20
66190;DHT22;52992;52.084;5.412;2022-12-07T01:36:21;8.40;66.10
66190;DHT22;52992;52.084;5.412;2022-12-07T01:38:51;8.40;66.10
66190;DHT22;52992;52.084;5.412;2022-12-07T01:41:20;8.40;65.90
66190;DHT22;52992;52.084;5.412;2022-12-07T01:46:52;8.40;66.00
66190;DHT22;52992;52.084;5.412;2022-12-07T01:49:42;8.30;65.70
66190;DHT22;52992;52.084;5.412;2022-12-07T01:52:25;8.30;65.90
66190;DHT22;52992;52.084;5.412;2022-12-07T01:54:56;8.30;65.70
66190;DHT22;52992;52.084;5.412;2022-12-07T01:57:23;8.30;65.70
66190;DHT22;52992;52.084;5.412;2022-12-07T01:59:51;8.20;65.60
66190;DHT22;52992;52.084;5.412;2022-12-07T02:02:29;8.20;65.50
66190;DHT22;52992;52.084;5.412;2022-12-07T02:05:00;8.10;65.50
66190;DHT22;52992;52.084;5.412;2022-12-07T02:07:28;8.10;65.40
66190;DHT22;52992;52.084;5.412;2022-12-07T02:09:55;8.10;65.30
66190;DHT22;52992;52.084;5.412;2022-12-07T02:12:23;8.10;65.20
66190;DHT22;52992;52.084;5.412;2022-12-07T02:14:51;8.10;65.20
66190;DHT22;52992;52.084;5.412;2022-12-07T02:17:20;8.00;65.00
66190;DHT22;52992;52.084;5.412;2022-12-07T02:20:23;8.20;65.00
66190;DHT22;52992;52.084;5.412;2022-12-07T02:28:33;8.10;65.10
66190;DHT22;52992;52.084;5.412;2022-12-07T02:31:05;8.10;64.80
66190;DHT22;52992;52.084;5.412;2022-12-07T02:33:40;8.20;64.70
66190;DHT22;52992;52.084;5.412;2022-12-07T02:39:01;8.40;64.10
66190;DHT22;52992;52.084;5.412;2022-12-07T02:41:35;8.40;64.00
66190;DHT22;52992;52.084;5.412;2022-12-07T02:44:06;8.40;64.00
66190;DHT22;52992;52.084;5.412;2022-12-07T02:46:41;8.40;63.90
66190;DHT22;52992;52.084;5.412;2022-12-07T02:49:09;8.40;64.00
66190;DHT22;52992;52.084;5.412;2022-12-07T02:51:43;8.40;63.80
66190;DHT22;52992;52.084;5.412;2022-12-07T02:54:17;8.40;63.70
66190;DHT22;52992;52.084;5.412;2022-12-07T02:59:32;8.50;63.60
66190;DHT22;52992;52.084;5.412;2022-12-07T03:05:02;8.60;63.30
66190;DHT22;52992;52.084;5.412;2022-12-07T03:07:51;8.70;63.30
66190;DHT22;52992;52.084;5.412;2022-12-07T03:10:51;8.80;63.20
66190;DHT22;52992;52.084;5.412;2022-12-07T03:13:50;8.80;63.00
66190;DHT22;52992;52.084;5.412;2022-12-07T03:16:25;8.90;63.00
66190;DHT22;52992;52.084;5.412;2022-12-07T03:19:03;9.00;62.70
66190;DHT22;52992;52.084;5.412;2022-12-07T03:21:39;9.00;62.90
66190;DHT22;52992;52.084;5.412;2022-12-07T03:24:12;8.80;64.30
66190;DHT22;52992;52.084;5.412;2022-12-07T03:26:44;8.80;65.20
66190;DHT22;52992;52.084;5.412;2022-12-07T03:29:22;8.70;65.40
66190;DHT22;52992;52.084;5.412;2022-12-07T03:31:59;8.60;65.70
66190;DHT22;52992;52.084;5.412;2022-12-07T03:34:36;8.50;66.10
66190;DHT22;52992;52.084;5.412;2022-12-07T03:37:17;8.50;66.50
66190;DHT22;52992;52.084;5.412;2022-12-07T03:39:54;8.50;66.60
66190;DHT22;52992;52.084;5.412;2022-12-07T03:42:24;8.50;66.60
66190;DHT22;52992;52.084;5.412;2022-12-07T03:44:51;8.50;66.50
66190;DHT22;52992;52.084;5.412;2022-12-07T03:47:25;8.50;66.60
66190;DHT22;52992;52.084;5.412;2022-12-07T03:52:52;8.60;66.30
66190;DHT22;52992;52.084;5.412;2022-12-07T03:55:27;8.50;66.40
66190;DHT22;52992;52.084;5.412;2022-12-07T03:57:59;8.40;67.10
66190;DHT22;52992;52.084;5.412;2022-12-07T04:00:27;8.40;66.60
66190;DHT22;52992;52.084;5.412;2022-12-07T04:02:55;8.40;66.70
66190;DHT22;52992;52.084;5.412;2022-12-07T04:05:22;8.40;66.70
66190;DHT22;52992;52.084;5.412;2022-12-07T04:07:49;8.50;66.70
66190;DHT22;52992;52.084;5.412;2022-12-07T04:10:17;8.60;66.60
66190;DHT22;52992;52.084;5.412;2022-12-07T04:12:44;8.60;66.30
66190;DHT22;52992;52.084;5.412;2022-12-07T04:15:11;8.60;66.20
66190;DHT22;52992;52.084;5.412;2022-12-07T04:17:38;8.60;66.20
66190;DHT22;52992;52.084;5.412;2022-12-07T04:20:06;8.60;66.20
66190;DHT22;52992;52.084;5.412;2022-12-07T04:22:33;8.60;66.30
66190;DHT22;52992;52.084;5.412;2022-12-07T04:25:00;8.60;66.40
66190;DHT22;52992;52.084;5.412;2022-12-07T04:27:27;8.60;66.30
66190;DHT22;52992;52.084;5.412;2022-12-07T04:29:53;8.70;66.30
66190;DHT22;52992;52.084;5.412;2022-12-07T04:32:22;8.70;66.40
66190;DHT22;52992;52.084;5.412;2022-12-07T04:34:49;8.70;66.40
66190;DHT22;52992;52.084;5.412;2022-12-07T04:37:21;8.70;66.30
66190;DHT22;52992;52.084;5.412;2022-12-07T04:39:48;8.70;66.20
66190;DHT22;52992;52.084;5.412;2022-12-07T04:42:15;8.70;66.00
66190;DHT22;52992;52.084;5.412;2022-12-07T04:44:42;8.70;66.20
66190;DHT22;52992;52.084;5.412;2022-12-07T04:47:09;8.60;66.00
66190;DHT22;52992;52.084;5.412;2022-12-07T04:49:36;8.60;66.10
66190;DHT22;52992;52.084;5.412;2022-12-07T04:52:03;8.60;66.20
66190;DHT22;52992;52.084;5.412;2022-12-07T04:54:30;8.60;66.40
66190;DHT22;52992;52.084;5.412;2022-12-07T04:56:56;8.60;66.30
66190;DHT22;52992;52.084;5.412;2022-12-07T04:59:23;8.60;66.30
66190;DHT22;52992;52.084;5.412;2022-12-07T05:01:50;8.60;66.50
66190;DHT22;52992;52.084;5.412;2022-12-07T05:04:17;8.70;66.50
66190;DHT22;52992;52.084;5.412;2022-12-07T05:06:44;8.70;67.20
66190;DHT22;52992;52.084;5.412;2022-12-07T05:09:11;8.70;66.20
66190;DHT22;52992;52.084;5.412;2022-12-07T05:11:38;8.70;66.90
66190;DHT22;52992;52.084;5.412;2022-12-07T05:14:14;8.70;66.20
66190;DHT22;52992;52.084;5.412;2022-12-07T05:16:42;8.70;66.20
66190;DHT22;52992;52.084;5.412;2022-12-07T05:19:10;8.70;66.00
66190;DHT22;52992;52.084;5.412;2022-12-07T05:21:37;8.70;66.70
66190;DHT22;52992;52.084;5.412;2022-12-07T05:24:05;8.60;66.00
66190;DHT22;52992;52.084;5.412;2022-12-07T05:26:32;8.60;66.00
66190;DHT22;52992;52.084;5.412;2022-12-07T05:28:59;8.50;66.20
66190;DHT22;52992;52.084;5.412;2022-12-07T05:31:26;8.40;66.20
66190;DHT22;52992;52.084;5.412;2022-12-07T05:33:54;8.40;66.30
66190;DHT22;52992;52.084;5.412;2022-12-07T05:36:21;8.30;66.30
66190;DHT22;52992;52.084;5.412;2022-12-07T05:38:48;8.30;66.30
66190;DHT22;52992;52.084;5.412;2022-12-07T05:41:17;8.20;66.20
66190;DHT22;52992;52.084;5.412;2022-12-07T05:44:03;8.10;66.20
66190;DHT22;52992;52.084;5.412;2022-12-07T05:46:30;8.10;66.20
66190;DHT22;52992;52.084;5.412;2022-12-07T05:48:57;8.10;66.20
66190;DHT22;52992;52.084;5.412;2022-12-07T05:51:24;8.00;66.00
66190;DHT22;52992;52.084;5.412;2022-12-07T05:53:51;8.00;66.10
66190;DHT22;52992;52.084;5.412;2022-12-07T05:56:17;8.00;66.10
66190;DHT22;52992;52.084;5.412;2022-12-07T05:58:44;8.00;66.00
66190;DHT22;52992;52.084;5.412;2022-12-07T06:01:30;8.00;66.10
66190;DHT22;52992;52.084;5.412;2022-12-07T06:03:56;7.90;66.10
66190;DHT22;52992;52.084;5.412;2022-12-07T06:06:23;7.90;66.10
66190;DHT22;52992;52.084;5.412;2022-12-07T06:08:50;7.90;66.20
66190;DHT22;52992;52.084;5.412;2022-12-07T06:11:17;7.90;66.20
66190;DHT22;52992;52.084;5.412;2022-12-07T06:14:02;8.00;66.10
66190;DHT22;52992;52.084;5.412;2022-12-07T06:16:29;8.00;66.00
66190;DHT22;52992;52.084;5.412;2022-12-07T06:18:56;8.00;66.00
66190;DHT22;52992;52.084;5.412;2022-12-07T06:21:22;8.00;65.90
66190;DHT22;52992;52.084;5.412;2022-12-07T06:23:49;8.00;66.60
66190;DHT22;52992;52.084;5.412;2022-12-07T06:26:16;8.00;65.90
66190;DHT22;52992;52.084;5.412;2022-12-07T06:28:43;8.00;65.90
66190;DHT22;52992;52.084;5.412;2022-12-07T06:31:09;8.00;65.80
66190;DHT22;52992;52.084;5.412;2022-12-07T06:33:40;7.90;66.00
66190;DHT22;52992;52.084;5.412;2022-12-07T06:36:07;8.00;66.00
66190;DHT22;52992;52.084;5.412;2022-12-07T06:38:34;8.00;65.90
66190;DHT22;52992;52.084;5.412;2022-12-07T06:41:01;8.00;65.80
66190;DHT22;52992;52.084;5.412;2022-12-07T06:43:28;8.00;65.60
66190;DHT22;52992;52.084;5.412;2022-12-07T06:45:55;8.00;65.70
66190;DHT22;52992;52.084;5.412;2022-12-07T06:48:22;8.00;65.90
66190;DHT22;52992;52.084;5.412;2022-12-07T06:50:49;8.00;66.10
66190;DHT22;52992;52.084;5.412;2022-12-07T06:53:21;8.10;66.00
66190;DHT22;52992;52.084;5.412;2022-12-07T06:55:48;8.10;66.00
66190;DHT22;52992;52.084;5.412;2022-12-07T06:58:15;8.20;65.70
66190;DHT22;52992;52.084;5.412;2022-12-07T07:00:43;8.20;65.70
66190;DHT22;52992;52.084;5.412;2022-12-07T07:03:09;8.20;65.70
66190;DHT22;52992;52.084;5.412;2022-12-07T07:05:36;8.20;65.70
66190;DHT22;52992;52.084;5.412;2022-12-07T07:08:03;8.20;65.50
66190;DHT22;52992;52.084;5.412;2022-12-07T07:10:48;8.10;65.50
66190;DHT22;52992;52.084;5.412;2022-12-07T07:13:15;8.10;65.60
66190;DHT22;52992;52.084;5.412;2022-12-07T07:15:42;8.00;65.60
66190;DHT22;52992;52.084;5.412;2022-12-07T07:18:09;8.00;65.70
66190;DHT22;52992;52.084;5.412;2022-12-07T07:20:36;7.90;65.80
66190;DHT22;52992;52.084;5.412;2022-12-07T07:23:03;7.90;65.90
66190;DHT22;52992;52.084;5.412;2022-12-07T07:25:31;7.90;65.70
66190;DHT22;52992;52.084;5.412;2022-12-07T07:27:58;7.90;65.70
66190;DHT22;52992;52.084;5.412;2022-12-07T07:30:25;7.90;65.50
66190;DHT22;52992;52.084;5.412;2022-12-07T07:32:57;7.90;65.50
66190;DHT22;52992;52.084;5.412;2022-12-07T07:35:25;7.80;65.50
66190;DHT22;52992;52.084;5.412;2022-12-07T07:37:51;7.80;65.40
66190;DHT22;52992;52.084;5.412;2022-12-07T07:40:18;7.80;65.40
66190;DHT22;52992;52.084;5.412;2022-12-07T07:42:52;7.80;65.40
66190;DHT22;52992;52.084;5.412;2022-12-07T07:45:21;7.70;65.50
66190;DHT22;52992;52.084;5.412;2022-12-07T07:47:48;7.70;65.40
66190;DHT22;52992;52.084;5.412;2022-12-07T07:50:15;7.70;65.50
66190;DHT22;52992;52.084;5.412;2022-12-07T07:52:43;7.70;65.70
66190;DHT22;52992;52.084;5.412;2022-12-07T07:55:10;7.70;65.80
66190;DHT22;52992;52.084;5.412;2022-12-07T07:57:38;7.80;65.70
66190;DHT22;52992;52.084;5.412;2022-12-07T08:00:08;7.90;65.50
66190;DHT22;52992;52.084;5.412;2022-12-07T08:02:38;7.90;65.20
66190;DHT22;52992;52.084;5.412;2022-12-07T08:05:05;7.90;65.20
66190;DHT22;52992;52.084;5.412;2022-12-07T08:07:32;7.90;65.20
66190;DHT22;52992;52.084;5.412;2022-12-07T08:09:59;7.80;65.10
66190;DHT22;52992;52.084;5.412;2022-12-07T08:12:26;7.80;65.20
66190;DHT22;52992;52.084;5.412;2022-12-07T08:14:53;7.80;65.20
66190;DHT22;52992;52.084;5.412;2022-12-07T08:17:20;7.80;65.30
66190;DHT22;52992;52.084;5.412;2022-12-07T08:19:47;7.80;65.30
66190;DHT22;52992;52.084;5.412;2022-12-07T08:22:13;7.80;65.20
66190;DHT22;52992;52.084;5.412;2022-12-07T08:24:40;7.80;65.20
66190;DHT22;52992;52.084;5.412;2022-12-07T08:27:07;7.80;65.10
66190;DHT22;52992;52.084;5.412;2022-12-07T08:29:34;7.90;65.20
66190;DHT22;52992;52.084;5.412;2022-12-07T08:32:00;7.90;65.30
66190;DHT22;52992;52.084;5.412;2022-12-07T08:34:35;8.10;65.40
66190;DHT22;52992;52.084;5.412;2022-12-07T08:37:02;8.40;65.00
66190;DHT22;52992;52.084;5.412;2022-12-07T08:39:29;8.60;64.10
66190;DHT22;52992;52.084;5.412;2022-12-07T08:41:58;8.70;63.60
66190;DHT22;52992;52.084;5.412;2022-12-07T08:44:25;8.80;63.80
66190;DHT22;52992;52.084;5.412;2022-12-07T08:46:55;8.80;63.80
66190;DHT22;52992;52.084;5.412;2022-12-07T08:49:40;8.80;64.60
66190;DHT22;52992;52.084;5.412;2022-12-07T08:52:08;8.70;65.30
66190;DHT22;52992;52.084;5.412;2022-12-07T08:54:37;8.70;65.60
66190;DHT22;52992;52.084;5.412;2022-12-07T08:57:05;8.70;65.80
66190;DHT22;52992;52.084;5.412;2022-12-07T08:59:34;8.90;65.70
66190;DHT22;52992;52.084;5.412;2022-12-07T09:02:03;9.00;65.40
66190;DHT22;52992;52.084;5.412;2022-12-07T09:04:33;9.00;65.40
66190;DHT22;52992;52.084;5.412;2022-12-07T09:07:00;9.10;65.40
66190;DHT22;52992;52.084;5.412;2022-12-07T09:09:27;9.20;65.40
66190;DHT22;52992;52.084;5.412;2022-12-07T09:11:54;9.20;65.20
66190;DHT22;52992;52.084;5.412;2022-12-07T09:14:20;9.10;65.30
66190;DHT22;52992;52.084;5.412;2022-12-07T09:16:47;9.10;65.70
66190;DHT22;52992;52.084;5.412;2022-12-07T09:19:14;9.30;65.80
66190;DHT22;52992;52.084;5.412;2022-12-07T09:21:41;9.50;65.50
66190;DHT22;52992;52.084;5.412;2022-12-07T09:24:08;9.60;64.90
66190;DHT22;52992;52.084;5.412;2022-12-07T09:26:35;9.80;64.70
66190;DHT22;52992;52.084;5.412;2022-12-07T09:29:02;9.80;64.40
66190;DHT22;52992;52.084;5.412;2022-12-07T09:31:29;9.80;64.50
66190;DHT22;52992;52.084;5.412;2022-12-07T09:33:58;9.90;64.70
66190;DHT22;52992;52.084;5.412;2022-12-07T09:36:26;10.10;64.60
66190;DHT22;52992;52.084;5.412;2022-12-07T09:38:53;10.20;64.10
66190;DHT22;52992;52.084;5.412;2022-12-07T09:41:21;10.30;64.10
66190;DHT22;52992;52.084;5.412;2022-12-07T09:43:49;10.50;64.00
66190;DHT22;52992;52.084;5.412;2022-12-07T09:46:18;10.60;64.00
66190;DHT22;52992;52.084;5.412;2022-12-07T09:48:47;10.70;63.60
66190;DHT22;52992;52.084;5.412;2022-12-07T09:51:23;10.80;63.10
66190;DHT22;52992;52.084;5.412;2022-12-07T09:53:53;10.70;63.20
66190;DHT22;52992;52.084;5.412;2022-12-07T09:56:22;10.70;63.80
66190;DHT22;52992;52.084;5.412;2022-12-07T09:58:50;10.80;63.60
66190;DHT22;52992;52.084;5.412;2022-12-07T10:01:20;10.90;63.40
66190;DHT22;52992;52.084;5.412;2022-12-07T10:03:58;10.90;63.10
66190;DHT22;52992;52.084;5.412;2022-12-07T10:06:27;11.20;63.20
66190;DHT22;52992;52.084;5.412;2022-12-07T10:08:54;11.10;62.80
66190;DHT22;52992;52.084;5.412;2022-12-07T10:11:21;11.10;62.80
66190;DHT22;52992;52.084;5.412;2022-12-07T10:13:51;11.20;62.70
66190;DHT22;52992;52.084;5.412;2022-12-07T10:16:41;11.30;62.70
66190;DHT22;52992;52.084;5.412;2022-12-07T10:22:14;11.10;62.90
66190;DHT22;52992;52.084;5.412;2022-12-07T10:24:43;11.10;63.00
66190;DHT22;52992;52.084;5.412;2022-12-07T10:27:19;10.90;62.90
66190;DHT22;52992;52.084;5.412;2022-12-07T10:29:49;10.90;63.40
66190;DHT22;52992;52.084;5.412;2022-12-07T10:34:44;11.10;62.90
66190;DHT22;52992;52.084;5.412;2022-12-07T10:37:19;11.20;62.80
66190;DHT22;52992;52.084;5.412;2022-12-07T10:44:46;11.10;62.40
66190;DHT22;52992;52.084;5.412;2022-12-07T10:47:42;10.90;63.00
66190;DHT22;52992;52.084;5.412;2022-12-07T10:58:41;11.10;63.30
66190;DHT22;52992;52.084;5.412;2022-12-07T11:04:18;11.40;62.70
66190;DHT22;52992;52.084;5.412;2022-12-07T11:06:59;11.60;63.10
66190;DHT22;52992;52.084;5.412;2022-12-07T11:15:43;12.00;61.70
66190;DHT22;52992;52.084;5.412;2022-12-07T11:21:21;12.10;62.00
66190;DHT22;52992;52.084;5.412;2022-12-07T11:24:15;12.10;61.50
66190;DHT22;52992;52.084;5.412;2022-12-07T11:37:47;11.50;62.20
66190;DHT22;52992;52.084;5.412;2022-12-07T11:40:26;11.40;62.30
66190;DHT22;52992;52.084;5.412;2022-12-07T11:43:15;11.20;62.60
66190;DHT22;52992;52.084;5.412;2022-12-07T11:45:47;11.10;63.20
66190;DHT22;52992;52.084;5.412;2022-12-07T11:48:37;11.20;63.00
66190;DHT22;52992;52.084;5.412;2022-12-07T11:51:07;11.10;63.00
66190;DHT22;52992;52.084;5.412;2022-12-07T11:53:42;11.10;62.90
66190;DHT22;52992;52.084;5.412;2022-12-07T11:56:15;11.10;63.00
66190;DHT22;52992;52.084;5.412;2022-12-07T11:58:48;11.20;62.60
66190;DHT22;52992;52.084;5.412;2022-12-07T12:04:32;11.10;62.80
66190;DHT22;52992;52.084;5.412;2022-12-07T12:06:59;11.00;62.70
66190;DHT22;52992;52.084;5.412;2022-12-07T12:10:05;10.90;62.80
66190;DHT22;52992;52.084;5.412;2022-12-07T12:13:07;10.80;63.20
66190;DHT22;52992;52.084;5.412;2022-12-07T12:19:01;10.70;63.20
66190;DHT22;52992;52.084;5.412;2022-12-07T12:21:31;10.60;63.50
66190;DHT22;52992;52.084;5.412;2022-12-07T12:24:12;10.50;63.40
66190;DHT22;52992;52.084;5.412;2022-12-07T12:26:49;10.50;63.70
66190;DHT22;52992;52.084;5.412;2022-12-07T12:29:27;10.50;63.50
66190;DHT22;52992;52.084;5.412;2022-12-07T12:32:15;10.50;63.80
66190;DHT22;52992;52.084;5.412;2022-12-07T12:37:40;10.60;63.40
66190;DHT22;52992;52.084;5.412;2022-12-07T12:42:54;10.70;63.00
66190;DHT22;52992;52.084;5.412;2022-12-07T12:48:02;10.70;63.10
66190;DHT22;52992;52.084;5.412;2022-12-07T12:50:37;10.70;63.30
66190;DHT22;52992;52.084;5.412;2022-12-07T12:58:41;11.30;62.20
66190;DHT22;52992;52.084;5.412;2022-12-07T13:01:40;11.60;61.20
66190;DHT22;52992;52.084;5.412;2022-12-07T13:06:49;12.20;59.20
66190;DHT22;52992;52.084;5.412;2022-12-07T13:09:36;12.50;57.80
66190;DHT22;52992;52.084;5.412;2022-12-07T13:12:14;12.90;57.00
66190;DHT22;52992;52.084;5.412;2022-12-07T13:14:51;13.10;55.40
66190;DHT22;52992;52.084;5.412;2022-12-07T13:20:04;12.50;54.00
66190;DHT22;52992;52.084;5.412;2022-12-07T13:27:40;11.00;60.30
66190;DHT22;52992;52.084;5.412;2022-12-07T13:30:19;10.90;62.10
66190;DHT22;52992;52.084;5.412;2022-12-07T13:32:54;10.60;63.00
66190;DHT22;52992;52.084;5.412;2022-12-07T13:35:34;10.40;64.20
66190;DHT22;52992;52.084;5.412;2022-12-07T13:38:05;10.40;65.50
66190;DHT22;52992;52.084;5.412;2022-12-07T13:40:32;10.30;66.50
66190;DHT22;52992;52.084;5.412;2022-12-07T13:43:01;10.30;65.80
66190;DHT22;52992;52.084;5.412;2022-12-07T13:45:29;10.30;65.40
66190;DHT22;52992;52.084;5.412;2022-12-07T13:51:01;10.30;66.90
66190;DHT22;52992;52.084;5.412;2022-12-07T13:53:28;10.30;66.90
66190;DHT22;52992;52.084;5.412;2022-12-07T13:55:58;10.40;67.40
66190;DHT22;52992;52.084;5.412;2022-12-07T13:58:29;10.50;68.10
66190;DHT22;52992;52.084;5.412;2022-12-07T14:00:57;10.70;68.00
66190;DHT22;52992;52.084;5.412;2022-12-07T14:03:33;10.80;67.80
66190;DHT22;52992;52.084;5.412;2022-12-07T14:08:32;10.90;67.70
66190;DHT22;52992;52.084;5.412;2022-12-07T14:10:59;11.00;67.90
66190;DHT22;52992;52.084;5.412;2022-12-07T14:13:38;11.00;67.60
66190;DHT22;52992;52.084;5.412;2022-12-07T14:16:32;11.00;67.60
66190;DHT22;52992;52.084;5.412;2022-12-07T14:19:02;10.90;68.40
66190;DHT22;52992;52.084;5.412;2022-12-07T14:21:34;10.80;67.80
66190;DHT22;52992;52.084;5.412;2022-12-07T14:24:21;10.70;67.90
66190;DHT22;52992;52.084;5.412;2022-12-07T14:26:50;10.70;68.60
66190;DHT22;52992;52.084;5.412;2022-12-07T14:31:54;10.70;68.30
66190;DHT22;52992;52.084;5.412;2022-12-07T14:34:22;10.60;68.20
66190;DHT22;52992;52.084;5.412;2022-12-07T14:36:49;10.50;68.10
66190;DHT22;52992;52.084;5.412;2022-12-07T14:39:16;10.50;68.30
66190;DHT22;52992;52.084;5.412;2022-12-07T14:41:43;10.40;68.00
66190;DHT22;52992;52.084;5.412;2022-12-07T14:44:21;10.40;68.40
66190;DHT22;52992;52.084;5.412;2022-12-07T14:46:53;10.40;68.60
66190;DHT22;52992;52.084;5.412;2022-12-07T14:49:40;10.40;68.60
66190;DHT22;52992;52.084;5.412;2022-12-07T14:52:16;10.40;68.60
66190;DHT22;52992;52.084;5.412;2022-12-07T14:55:04;10.40;68.50
66190;DHT22;52992;52.084;5.412;2022-12-07T14:57:31;10.40;68.10
66190;DHT22;52992;52.084;5.412;2022-12-07T14:59:58;10.30;68.30
66190;DHT22;52992;52.084;5.412;2022-12-07T15:02:25;10.30;68.30
66190;DHT22;52992;52.084;5.412;2022-12-07T15:04:51;10.20;68.30
66190;DHT22;52992;52.084;5.412;2022-12-07T15:07:20;10.30;68.50
66190;DHT22;52992;52.084;5.412;2022-12-07T15:09:48;9.90;67.40
66190;DHT22;52992;52.084;5.412;2022-12-07T15:12:15;9.90;68.90
66190;DHT22;52992;52.084;5.412;2022-12-07T15:14:41;9.80;67.50
66190;DHT22;52992;52.084;5.412;2022-12-07T15:17:11;9.90;68.80
66190;DHT22;52992;52.084;5.412;2022-12-07T15:19:51;10.00;68.40
66190;DHT22;52992;52.084;5.412;2022-12-07T15:22:18;10.00;68.20
66190;DHT22;52992;52.084;5.412;2022-12-07T15:24:45;10.10;68.20
66190;DHT22;52992;52.084;5.412;2022-12-07T15:27:11;10.10;68.20
66190;DHT22;52992;52.084;5.412;2022-12-07T15:29:38;10.10;68.10
66190;DHT22;52992;52.084;5.412;2022-12-07T15:32:05;10.20;68.00
66190;DHT22;52992;52.084;5.412;2022-12-07T15:34:32;10.20;68.30
66190;DHT22;52992;52.084;5.412;2022-12-07T15:37:07;10.20;67.50
66190;DHT22;52992;52.084;5.412;2022-12-07T15:39:35;10.20;67.60
66190;DHT22;52992;52.084;5.412;2022-12-07T15:42:02;10.10;67.60
66190;DHT22;52992;52.084;5.412;2022-12-07T15:44:29;10.10;67.70
66190;DHT22;52992;52.084;5.412;2022-12-07T15:47:15;10.00;67.50
66190;DHT22;52992;52.084;5.412;2022-12-07T15:49:41;10.00;67.80
66190;DHT22;52992;52.084;5.412;2022-12-07T15:52:08;10.00;67.80
66190;DHT22;52992;52.084;5.412;2022-12-07T15:54:35;9.90;67.90
66190;DHT22;52992;52.084;5.412;2022-12-07T15:57:02;9.90;68.00
66190;DHT22;52992;52.084;5.412;2022-12-07T15:59:29;9.80;67.90
66190;DHT22;52992;52.084;5.412;2022-12-07T16:01:56;9.80;67.90
66190;DHT22;52992;52.084;5.412;2022-12-07T16:04:24;9.80;68.00
66190;DHT22;52992;52.084;5.412;2022-12-07T16:06:50;9.80;67.90
66190;DHT22;52992;52.084;5.412;2022-12-07T16:09:18;9.80;67.80
66190;DHT22;52992;52.084;5.412;2022-12-07T16:11:45;9.80;67.90
66190;DHT22;52992;52.084;5.412;2022-12-07T16:14:13;9.80;67.80
66190;DHT22;52992;52.084;5.412;2022-12-07T16:16:40;9.70;67.60
66190;DHT22;52992;52.084;5.412;2022-12-07T16:19:08;9.70;67.70
66190;DHT22;52992;52.084;5.412;2022-12-07T16:21:35;9.70;67.80
66190;DHT22;52992;52.084;5.412;2022-12-07T16:24:03;9.60;67.60
66190;DHT22;52992;52.084;5.412;2022-12-07T16:26:30;9.60;67.70
66190;DHT22;52992;52.084;5.412;2022-12-07T16:28:57;9.60;67.60
66190;DHT22;52992;52.084;5.412;2022-12-07T16:31:26;9.60;67.70
66190;DHT22;52992;52.084;5.412;2022-12-07T16:33:55;9.60;67.60
66190;DHT22;52992;52.084;5.412;2022-12-07T16:36:22;9.60;67.50
66190;DHT22;52992;52.084;5.412;2022-12-07T16:39:11;9.50;67.60
66190;DHT22;52992;52.084;5.412;2022-12-07T16:41:38;9.50;67.40
66190;DHT22;52992;52.084;5.412;2022-12-07T16:44:06;9.50;67.10
66190;DHT22;52992;52.084;5.412;2022-12-07T16:46:35;9.50;67.10
66190;DHT22;52992;52.084;5.412;2022-12-07T16:49:03;9.50;67.10
66190;DHT22;52992;52.084;5.412;2022-12-07T16:51:30;9.50;66.90
66190;DHT22;52992;52.084;5.412;2022-12-07T16:53:58;9.50;66.70
66190;DHT22;52992;52.084;5.412;2022-12-07T16:56:25;9.50;66.60
66190;DHT22;52992;52.084;5.412;2022-12-07T16:58:53;9.50;66.40
66190;DHT22;52992;52.084;5.412;2022-12-07T17:01:20;9.50;66.30
66190;DHT22;52992;52.084;5.412;2022-12-07T17:03:50;9.40;66.10
66190;DHT22;52992;52.084;5.412;2022-12-07T17:06:28;9.40;66.00
66190;DHT22;52992;52.084;5.412;2022-12-07T17:08:56;9.40;66.00
66190;DHT22;52992;52.084;5.412;2022-12-07T17:11:28;9.40;65.80
66190;DHT22;52992;52.084;5.412;2022-12-07T17:13:57;9.40;65.60
66190;DHT22;52992;52.084;5.412;2022-12-07T17:16:43;9.40;65.50
66190;DHT22;52992;52.084;5.412;2022-12-07T17:19:12;9.40;65.30
66190;DHT22;52992;52.084;5.412;2022-12-07T17:21:40;9.40;65.30
66190;DHT22;52992;52.084;5.412;2022-12-07T17:24:08;9.40;65.00
66190;DHT22;52992;52.084;5.412;2022-12-07T17:26:36;9.40;65.20
66190;DHT22;52992;52.084;5.412;2022-12-07T17:29:04;9.40;65.30
66190;DHT22;52992;52.084;5.412;2022-12-07T17:31:32;9.40;65.10
66190;DHT22;52992;52.084;5.412;2022-12-07T17:33:59;9.40;65.20
66190;DHT22;52992;52.084;5.412;2022-12-07T17:36:28;9.40;65.00
66190;DHT22;52992;52.084;5.412;2022-12-07T17:38:56;9.40;64.80
66190;DHT22;52992;52.084;5.412;2022-12-07T17:41:25;9.40;64.80
66190;DHT22;52992;52.084;5.412;2022-12-07T17:44:13;9.50;64.80
66190;DHT22;52992;52.084;5.412;2022-12-07T17:46:40;9.50;64.60